Three Oaks, Michigan
Current Conditions -  °F | °C
As of 11:35 AM on Sunday 21 Dec 2014 (Local Time) from KMGC Reporting Station
Overcast Overcast  
Wind Chill: 26°   Ceiling: 3300
Heat Index: 32°   Visibility: 7mi
Dew Point: 23°   Wind: 7mph
Humidity: 69%   Direction: 180°S
Pressure: 30.23"   Gusts: NA
Location:  41.8°N, 86.61°W
Report Text: KMGC 211635Z AUTO 18006KT 7SM OVC033 00/M05 A3023 RMK AO2
Loading
Personal Weather Stations






























Interactive Weather Map New forecast layout! Learn more

10-Day Weather Forecast

Advertisements
Track Severe Weather on mobile